Time;durP1;ratioP1;P1;durP2;ratioP2;P2;SDS_P1;SDS_P2;PMS_P1;PMS_P2;Temp;Humidity;BMP_temperature;BMP_pressure;BME280_temperature;BME280_humidity;BME280_pressure;Samples;Min_cycle;Max_cycle;Signal;HPM_P1;HPM_P2
2021/06/24 00:01:24;;;;;;;5.20;4.40;;;;;;;;;;5093767;28;20759;-71
2021/06/24 00:03:50;;;;;;;5.40;4.83;;;;;;;;;;5093712;28;20416;-72
2021/06/24 00:06:16;;;;;;;5.27;4.30;;;;;;;;;;5094435;28;20456;-76
2021/06/24 00:08:42;;;;;;;7.50;4.30;;;;;;;;;;5093748;28;20431;-75
2021/06/24 00:11:10;;;;;;;5.30;4.27;;;;;;;;;;5093333;28;20407;-73
2021/06/24 00:13:36;;;;;;;15.13;4.77;;;;;;;;;;5093456;28;20471;-75
2021/06/24 00:16:02;;;;;;;4.80;4.27;;;;;;;;;;5093642;28;20484;-74
2021/06/24 00:18:29;;;;;;;5.80;4.37;;;;;;;;;;5089723;28;20753;-74
2021/06/24 00:20:55;;;;;;;5.07;4.50;;;;;;;;;;5073250;28;20416;-76
2021/06/24 00:23:21;;;;;;;4.80;3.90;;;;;;;;;;5072809;28;20476;-73
2021/06/24 00:25:47;;;;;;;11.10;4.40;;;;;;;;;;5087453;28;20802;-75
2021/06/24 00:28:16;;;;;;;7.73;5.27;;;;;;;;;;5093066;28;20407;-75
2021/06/24 00:30:44;;;;;;;5.63;4.60;;;;;;;;;;5077798;28;20457;-75
2021/06/24 00:33:10;;;;;;;11.97;5.20;;;;;;;;;;5072774;28;20448;-74
2021/06/24 00:35:36;;;;;;;6.60;5.00;;;;;;;;;;5072783;28;20419;-75
2021/06/24 00:38:04;;;;;;;6.50;4.40;;;;;;;;;;5072891;28;20417;-76
2021/06/24 00:40:31;;;;;;;5.00;4.50;;;;;;;;;;5072891;28;20410;-74
2021/06/24 00:42:57;;;;;;;6.97;4.43;;;;;;;;;;5072969;28;20433;-75
2021/06/24 00:45:23;;;;;;;7.90;4.30;;;;;;;;;;5072938;28;20421;-76
2021/06/24 00:47:49;;;;;;;5.37;4.87;;;;;;;;;;5081943;28;20455;-72
2021/06/24 00:50:15;;;;;;;5.83;5.10;;;;;;;;;;5093444;28;20419;-75
2021/06/24 00:52:41;;;;;;;5.83;4.90;;;;;;;;;;5093267;28;20534;-75
2021/06/24 00:55:08;;;;;;;6.10;5.10;;;;;;;;;;5093128;28;20757;-75
2021/06/24 00:57:34;;;;;;;4.97;4.57;;;;;;;;;;5092803;28;20419;-75
2021/06/24 01:00:00;;;;;;;6.90;5.60;;;;;;;;;;5093216;28;20416;-74
2021/06/24 01:02:26;;;;;;;6.57;5.00;;;;;;;;;;5093094;28;20518;-71
2021/06/24 01:04:52;;;;;;;7.83;5.27;;;;;;;;;;5092926;28;20912;-72
2021/06/24 01:07:18;;;;;;;5.97;5.17;;;;;;;;;;5092875;28;20470;-70
2021/06/24 01:09:45;;;;;;;7.33;5.13;;;;;;;;;;5092676;28;20491;-73
2021/06/24 01:12:11;;;;;;;6.20;5.47;;;;;;;;;;5085532;28;20956;-76
2021/06/24 01:14:37;;;;;;;7.63;5.30;;;;;;;;;;5072551;28;20418;-73
2021/06/24 01:17:04;;;;;;;5.73;4.90;;;;;;;;;;5073045;28;20417;-72
2021/06/24 01:19:30;;;;;;;9.17;5.43;;;;;;;;;;5072428;28;20563;-73
2021/06/24 01:21:57;;;;;;;8.07;5.90;;;;;;;;;;5074269;28;20437;-76
2021/06/24 01:24:23;;;;;;;6.93;5.50;;;;;;;;;;5079104;28;20421;-75
2021/06/24 01:26:49;;;;;;;5.63;5.10;;;;;;;;;;5096791;28;20464;-72
2021/06/24 01:29:15;;;;;;;9.87;5.57;;;;;;;;;;5094185;28;20444;-75
2021/06/24 01:31:41;;;;;;;6.93;5.60;;;;;;;;;;5076430;28;20409;-73
2021/06/24 01:34:08;;;;;;;5.87;5.20;;;;;;;;;;5076036;28;20418;-72
2021/06/24 01:36:35;;;;;;;6.83;5.70;;;;;;;;;;5076572;28;20431;-75
2021/06/24 01:39:02;;;;;;;8.90;5.63;;;;;;;;;;5076108;28;20419;-74
2021/06/24 01:41:28;;;;;;;7.57;5.97;;;;;;;;;;5075167;28;20425;-72
2021/06/24 01:43:54;;;;;;;7.30;5.83;;;;;;;;;;5074595;28;20423;-75
2021/06/24 01:46:20;;;;;;;6.20;5.60;;;;;;;;;;5076028;28;20468;-72
2021/06/24 01:48:46;;;;;;;6.87;5.73;;;;;;;;;;5093474;28;20425;-72
2021/06/24 01:51:12;;;;;;;7.77;6.40;;;;;;;;;;5096369;28;20420;-74
2021/06/24 01:53:38;;;;;;;6.27;5.63;;;;;;;;;;5095958;28;20485;-72
2021/06/24 01:56:05;;;;;;;7.90;5.60;;;;;;;;;;5096053;28;20412;-76
2021/06/24 01:58:31;;;;;;;7.47;6.23;;;;;;;;;;5096007;28;20424;-74
2021/06/24 02:00:58;;;;;;;8.10;5.77;;;;;;;;;;5096570;28;20498;-73
2021/06/24 02:03:25;;;;;;;6.80;6.20;;;;;;;;;;5095671;28;20431;-73
2021/06/24 02:05:53;;;;;;;9.30;5.93;;;;;;;;;;5096049;28;20756;-76
2021/06/24 02:08:20;;;;;;;10.83;5.97;;;;;;;;;;5095474;28;20431;-74
2021/06/24 02:10:47;;;;;;;6.30;5.63;;;;;;;;;;5096124;28;20496;-76
2021/06/24 02:13:13;;;;;;;9.23;5.97;;;;;;;;;;5095538;28;20438;-75
2021/06/24 02:15:39;;;;;;;8.53;5.27;;;;;;;;;;5095978;28;20419;-74
2021/06/24 02:18:06;;;;;;;9.33;6.17;;;;;;;;;;5095029;28;20423;-76
2021/06/24 02:20:32;;;;;;;7.73;6.10;;;;;;;;;;5075552;28;20421;-75
2021/06/24 02:22:58;;;;;;;7.63;5.43;;;;;;;;;;5075164;28;20433;-74
2021/06/24 02:25:24;;;;;;;6.50;5.90;;;;;;;;;;5086793;28;20408;-78
2021/06/24 02:27:50;;;;;;;6.53;5.87;;;;;;;;;;5095234;28;20809;-74
2021/06/24 02:30:17;;;;;;;6.27;5.67;;;;;;;;;;5084455;28;20444;-76
2021/06/24 02:32:43;;;;;;;7.67;5.57;;;;;;;;;;5074230;28;20453;-77
2021/06/24 02:35:11;;;;;;;9.00;6.23;;;;;;;;;;5075188;28;20420;-74
2021/06/24 02:37:37;;;;;;;6.60;5.47;;;;;;;;;;5075109;28;20532;-75
2021/06/24 02:40:04;;;;;;;8.20;5.50;;;;;;;;;;5075357;28;20412;-73
2021/06/24 02:42:30;;;;;;;8.67;6.50;;;;;;;;;;5074819;28;20443;-74
2021/06/24 02:44:56;;;;;;;9.10;5.30;;;;;;;;;;5075042;28;20512;-75
2021/06/24 02:47:22;;;;;;;5.70;5.17;;;;;;;;;;5080400;28;20877;-75
2021/06/24 02:49:48;;;;;;;6.27;5.03;;;;;;;;;;5095341;28;20886;-72
2021/06/24 02:52:14;;;;;;;5.83;5.27;;;;;;;;;;5095041;28;20432;-72
2021/06/24 02:54:41;;;;;;;7.13;5.07;;;;;;;;;;5094851;28;20414;-77
2021/06/24 02:57:07;;;;;;;7.70;5.23;;;;;;;;;;5095020;28;20500;-74
2021/06/24 02:59:33;;;;;;;7.60;5.20;;;;;;;;;;5095154;28;20412;-76
2021/06/24 03:01:59;;;;;;;8.43;5.33;;;;;;;;;;5094861;28;20424;-74
2021/06/24 03:04:25;;;;;;;5.10;4.60;;;;;;;;;;5094904;28;20436;-71
2021/06/24 03:06:51;;;;;;;6.53;5.30;;;;;;;;;;5094622;28;20456;-75
2021/06/24 03:09:17;;;;;;;6.37;4.50;;;;;;;;;;5094897;28;20447;-75
2021/06/24 03:11:43;;;;;;;7.77;5.40;;;;;;;;;;5094674;28;20432;-71
2021/06/24 03:14:09;;;;;;;5.23;4.83;;;;;;;;;;5094561;28;20771;-76
2021/06/24 03:16:35;;;;;;;5.70;5.20;;;;;;;;;;5094613;28;20415;-76
2021/06/24 03:19:01;;;;;;;6.40;5.80;;;;;;;;;;5086081;28;20779;-78
2021/06/24 03:21:27;;;;;;;5.67;5.17;;;;;;;;;;5074386;28;20413;-73
2021/06/24 03:23:53;;;;;;;6.27;5.10;;;;;;;;;;5074049;28;20409;-72
2021/06/24 03:26:20;;;;;;;7.50;5.27;;;;;;;;;;5093853;28;20806;-76
2021/06/24 03:28:46;;;;;;;10.90;6.30;;;;;;;;;;5094321;28;20408;-72
2021/06/24 03:31:12;;;;;;;7.67;5.20;;;;;;;;;;5074773;28;20445;-73
2021/06/24 03:33:38;;;;;;;8.40;5.60;;;;;;;;;;5074136;28;20806;-72
2021/06/24 03:36:05;;;;;;;8.30;6.20;;;;;;;;;;5074284;28;20412;-72
2021/06/24 03:38:31;;;;;;;6.93;5.60;;;;;;;;;;5073802;28;20830;-74
2021/06/24 03:40:57;;;;;;;5.53;5.03;;;;;;;;;;5074091;28;20419;-74
2021/06/24 03:43:23;;;;;;;9.30;6.50;;;;;;;;;;5073771;28;20434;-76
2021/06/24 03:45:49;;;;;;;5.90;5.30;;;;;;;;;;5072397;28;20431;-75
2021/06/24 03:48:15;;;;;;;6.03;5.43;;;;;;;;;;5073706;28;20433;-73
2021/06/24 03:50:41;;;;;;;6.90;5.63;;;;;;;;;;5073895;28;20415;-73
2021/06/24 03:53:07;;;;;;;7.90;6.13;;;;;;;;;;5073425;28;20448;-77
2021/06/24 03:55:40;;;;;;;7.63;5.80;;;;;;;;;;5073655;28;20411;-73
2021/06/24 03:58:07;;;;;;;6.20;5.60;;;;;;;;;;5073541;28;20418;-75
2021/06/24 04:00:36;;;;;;;6.93;5.10;;;;;;;;;;5073830;28;20433;-75
2021/06/24 04:03:02;;;;;;;9.73;6.90;;;;;;;;;;5073110;28;20440;-76
2021/06/24 04:05:31;;;;;;;9.13;5.77;;;;;;;;;;5073864;28;20410;-74
2021/06/24 04:07:58;;;;;;;6.43;5.83;;;;;;;;;;5073334;28;20486;-75
2021/06/24 04:10:24;;;;;;;5.50;5.00;;;;;;;;;;5073739;28;20542;-75
2021/06/24 04:12:50;;;;;;;7.63;6.93;;;;;;;;;;5073036;28;20428;-74
2021/06/24 04:15:16;;;;;;;6.67;6.00;;;;;;;;;;5073530;28;20810;-74
2021/06/24 04:17:42;;;;;;;7.47;6.60;;;;;;;;;;5073081;28;20816;-73
2021/06/24 04:20:09;;;;;;;6.47;5.57;;;;;;;;;;5073359;28;20448;-73
2021/06/24 04:22:35;;;;;;;5.67;5.10;;;;;;;;;;5073229;28;20447;-74
2021/06/24 04:25:01;;;;;;;6.40;5.63;;;;;;;;;;5080853;28;20759;-75
2021/06/24 04:27:27;;;;;;;6.03;5.37;;;;;;;;;;5093221;28;20544;-73
2021/06/24 04:29:53;;;;;;;6.60;5.43;;;;;;;;;;5085963;28;20814;-75
2021/06/24 04:32:19;;;;;;;7.33;5.77;;;;;;;;;;5073227;28;20433;-76
2021/06/24 04:34:45;;;;;;;6.00;5.40;;;;;;;;;;5073133;28;20421;-76
2021/06/24 04:37:11;;;;;;;11.37;5.80;;;;;;;;;;5073477;28;20413;-75
2021/06/24 04:39:37;;;;;;;6.67;6.07;;;;;;;;;;5072897;28;20421;-77
2021/06/24 04:42:03;;;;;;;6.47;5.30;;;;;;;;;;5073065;28;20446;-74
2021/06/24 04:44:29;;;;;;;5.87;5.23;;;;;;;;;;5073044;28;20425;-75
2021/06/24 04:46:55;;;;;;;9.57;6.47;;;;;;;;;;5074628;28;20454;-74
2021/06/24 04:49:21;;;;;;;6.67;5.97;;;;;;;;;;5093139;28;20414;-75
2021/06/24 04:51:47;;;;;;;6.67;5.40;;;;;;;;;;5091999;28;20453;-72
2021/06/24 04:54:13;;;;;;;7.00;5.80;;;;;;;;;;5092996;28;20445;-73
2021/06/24 04:56:39;;;;;;;6.93;5.90;;;;;;;;;;5094508;28;20488;-74
2021/06/24 04:59:05;;;;;;;7.10;6.07;;;;;;;;;;5097353;28;20455;-76
2021/06/24 05:01:31;;;;;;;6.67;5.73;;;;;;;;;;5095673;28;20826;-74
2021/06/24 05:03:57;;;;;;;6.60;5.90;;;;;;;;;;5097266;28;20428;-77
2021/06/24 05:06:23;;;;;;;7.23;5.77;;;;;;;;;;5095735;28;20945;-75
2021/06/24 05:08:50;;;;;;;6.03;5.43;;;;;;;;;;5096881;28;20840;-73
2021/06/24 05:11:16;;;;;;;6.13;5.27;;;;;;;;;;5097024;28;20871;-75
2021/06/24 05:13:43;;;;;;;6.73;5.40;;;;;;;;;;5077615;28;20483;-74
2021/06/24 05:16:09;;;;;;;5.77;5.33;;;;;;;;;;5077024;28;20421;-76
2021/06/24 05:18:35;;;;;;;8.50;5.73;;;;;;;;;;5076514;28;20448;-76
2021/06/24 05:21:02;;;;;;;7.63;5.43;;;;;;;;;;5076889;28;20768;-74
2021/06/24 05:23:28;;;;;;;6.33;4.50;;;;;;;;;;5076244;28;20441;-74
2021/06/24 05:25:54;;;;;;;7.53;5.53;;;;;;;;;;5090863;28;20492;-76
2021/06/24 05:28:20;;;;;;;5.87;4.40;;;;;;;;;;5096602;28;20415;-77
2021/06/24 05:30:47;;;;;;;5.23;4.50;;;;;;;;;;5082312;28;20407;-73
2021/06/24 05:33:13;;;;;;;5.73;5.20;;;;;;;;;;5076437;28;20444;-72
2021/06/24 05:35:40;;;;;;;6.10;4.40;;;;;;;;;;5076351;28;20802;-72
2021/06/24 05:38:11;;;;;;;6.00;4.80;;;;;;;;;;5076328;28;20414;-74
2021/06/24 05:40:37;;;;;;;5.33;4.43;;;;;;;;;;5076368;28;20485;-73
2021/06/24 05:43:03;;;;;;;5.00;3.87;;;;;;;;;;5076060;28;20461;-74
2021/06/24 05:45:29;;;;;;;5.97;4.63;;;;;;;;;;5076521;28;20463;-77
2021/06/24 05:47:56;;;;;;;5.17;4.13;;;;;;;;;;5086075;28;20463;-74
2021/06/24 05:50:22;;;;;;;4.03;3.63;;;;;;;;;;5096242;28;20409;-73
2021/06/24 05:52:48;;;;;;;5.50;3.70;;;;;;;;;;5095998;28;20482;-74
2021/06/24 05:55:14;;;;;;;5.00;3.87;;;;;;;;;;5096215;28;20420;-72
2021/06/24 05:57:40;;;;;;;3.97;3.57;;;;;;;;;;5096418;28;20417;-74
2021/06/24 06:00:07;;;;;;;4.43;4.03;;;;;;;;;;5096098;28;20411;-72
2021/06/24 06:02:34;;;;;;;4.90;3.90;;;;;;;;;;5096236;28;20437;-73
2021/06/24 06:05:00;;;;;;;5.57;3.67;;;;;;;;;;5095852;28;20428;-74
2021/06/24 06:07:26;;;;;;;4.17;3.77;;;;;;;;;;5095581;28;20467;-77
2021/06/24 06:09:52;;;;;;;7.87;3.90;;;;;;;;;;5095738;28;20417;-73
2021/06/24 06:12:18;;;;;;;5.47;3.70;;;;;;;;;;5095990;28;20456;-76
2021/06/24 06:14:44;;;;;;;3.77;3.23;;;;;;;;;;5095590;28;20409;-77
2021/06/24 06:17:10;;;;;;;6.13;3.93;;;;;;;;;;5095946;28;20409;-73
2021/06/24 06:19:38;;;;;;;4.60;3.40;;;;;;;;;;5082361;28;20741;-75
2021/06/24 06:22:04;;;;;;;7.40;4.00;;;;;;;;;;5075685;28;20861;-74
2021/06/24 06:24:30;;;;;;;3.83;3.50;;;;;;;;;;5079510;28;20445;-75
2021/06/24 06:26:56;;;;;;;4.93;3.63;;;;;;;;;;5095781;28;20556;-74
2021/06/24 06:29:22;;;;;;;5.33;3.87;;;;;;;;;;5091125;28;20411;-72
2021/06/24 06:31:48;;;;;;;7.40;3.73;;;;;;;;;;5075789;28;20465;-74
2021/06/24 06:34:14;;;;;;;4.33;3.87;;;;;;;;;;5078743;28;20424;-73
2021/06/24 06:36:40;;;;;;;3.93;3.27;;;;;;;;;;5072248;28;20453;-72
2021/06/24 06:39:06;;;;;;;4.93;4.43;;;;;;;;;;5076228;28;20426;-75
2021/06/24 06:41:32;;;;;;;3.83;3.43;;;;;;;;;;5079376;28;20433;-77
2021/06/24 06:43:58;;;;;;;6.03;3.80;;;;;;;;;;5071181;28;20869;-73
2021/06/24 06:46:25;;;;;;;7.70;5.40;;;;;;;;;;5077009;28;20462;-73
2021/06/24 06:48:52;;;;;;;8.00;6.30;;;;;;;;;;5079778;28;20414;-74
2021/06/24 06:51:18;;;;;;;5.33;4.00;;;;;;;;;;5083318;28;20412;-73
2021/06/24 06:53:44;;;;;;;6.30;4.30;;;;;;;;;;5073030;28;20434;-74
2021/06/24 06:56:11;;;;;;;4.37;3.43;;;;;;;;;;5069329;28;20423;-73
2021/06/24 06:58:37;;;;;;;5.20;3.87;;;;;;;;;;5080773;28;20812;-73
2021/06/24 07:01:04;;;;;;;7.80;3.83;;;;;;;;;;5088860;28;20432;-74
2021/06/24 07:03:30;;;;;;;6.20;4.00;;;;;;;;;;5077052;28;20434;-77
2021/06/24 07:05:56;;;;;;;4.10;3.70;;;;;;;;;;5076471;28;20418;-75
2021/06/24 07:08:22;;;;;;;4.50;3.77;;;;;;;;;;5073505;28;20429;-76
2021/06/24 07:10:48;;;;;;;4.30;3.70;;;;;;;;;;5084328;28;20420;-74
2021/06/24 07:13:14;;;;;;;6.10;3.63;;;;;;;;;;5075067;28;20966;-73
2021/06/24 07:15:40;;;;;;;3.97;3.50;;;;;;;;;;5071768;28;20468;-76
2021/06/24 07:18:07;;;;;;;5.03;3.77;;;;;;;;;;5082596;28;20825;-76
2021/06/24 07:20:33;;;;;;;7.00;4.63;;;;;;;;;;5087318;28;20495;-72
2021/06/24 07:22:59;;;;;;;5.00;3.50;;;;;;;;;;5078356;28;20784;-73
2021/06/24 07:25:25;;;;;;;4.00;3.60;;;;;;;;;;5082142;28;20795;-74
2021/06/24 07:27:51;;;;;;;6.23;3.80;;;;;;;;;;5082047;28;20493;-75
2021/06/24 07:30:18;;;;;;;5.57;4.07;;;;;;;;;;5080006;28;20417;-73
2021/06/24 07:32:44;;;;;;;5.93;3.87;;;;;;;;;;5070901;28;20794;-73
2021/06/24 07:35:10;;;;;;;3.97;3.67;;;;;;;;;;5080940;28;20447;-74
2021/06/24 07:37:37;;;;;;;4.23;3.83;;;;;;;;;;5084386;28;20591;-75
2021/06/24 07:40:05;;;;;;;6.00;3.70;;;;;;;;;;5080285;28;21038;-72
2021/06/24 07:42:31;;;;;;;3.97;3.60;;;;;;;;;;5081241;28;20437;-76
2021/06/24 07:44:57;;;;;;;5.30;4.00;;;;;;;;;;5071912;28;20488;-74
2021/06/24 07:47:23;;;;;;;8.23;4.33;;;;;;;;;;5077711;28;20465;-75
2021/06/24 07:49:49;;;;;;;4.27;3.93;;;;;;;;;;5079437;28;20521;-74
2021/06/24 07:52:15;;;;;;;4.47;4.07;;;;;;;;;;5077355;28;20521;-76
2021/06/24 07:54:41;;;;;;;4.00;3.17;;;;;;;;;;5075723;28;20927;-75
2021/06/24 07:57:07;;;;;;;4.63;3.67;;;;;;;;;;5085995;28;20426;-73
2021/06/24 07:59:34;;;;;;;3.53;3.23;;;;;;;;;;5076301;28;20446;-72
2021/06/24 08:02:00;;;;;;;3.23;2.90;;;;;;;;;;5072648;28;20435;-72
2021/06/24 08:04:26;;;;;;;3.30;3.00;;;;;;;;;;5073045;28;20813;-74
2021/06/24 08:06:52;;;;;;;3.60;3.17;;;;;;;;;;5083531;28;20585;-73
2021/06/24 08:09:19;;;;;;;5.60;4.30;;;;;;;;;;5074103;28;20474;-72
2021/06/24 08:11:45;;;;;;;7.07;3.63;;;;;;;;;;5077417;28;20893;-75
2021/06/24 08:14:11;;;;;;;4.07;3.37;;;;;;;;;;5081893;28;20414;-73
2021/06/24 08:16:37;;;;;;;4.93;3.70;;;;;;;;;;5081421;28;20562;-75
2021/06/24 08:19:04;;;;;;;4.57;3.50;;;;;;;;;;5077945;28;20520;-76
2021/06/24 08:21:31;;;;;;;4.90;3.50;;;;;;;;;;5089326;28;20405;-72
2021/06/24 08:23:57;;;;;;;4.30;3.90;;;;;;;;;;5078535;28;20419;-72
2021/06/24 08:26:23;;;;;;;5.03;4.10;;;;;;;;;;5078537;28;20457;-74
2021/06/24 08:28:49;;;;;;;5.00;3.83;;;;;;;;;;5080751;28;20407;-73
2021/06/24 08:31:15;;;;;;;4.70;4.30;;;;;;;;;;5085995;28;20411;-76
2021/06/24 08:33:41;;;;;;;7.77;3.50;;;;;;;;;;5080467;28;20821;-74
2021/06/24 08:36:07;;;;;;;4.90;3.77;;;;;;;;;;5076088;28;20421;-72
2021/06/24 08:38:33;;;;;;;5.10;3.70;;;;;;;;;;5074614;28;20488;-71
2021/06/24 08:41:00;;;;;;;4.10;3.73;;;;;;;;;;5085997;28;20416;-75
2021/06/24 08:43:26;;;;;;;4.13;3.83;;;;;;;;;;5077120;28;20450;-72
2021/06/24 08:45:56;;;;;;;4.90;4.43;;;;;;;;;;5072913;28;20772;-74
2021/06/24 08:48:24;;;;;;;4.90;4.50;;;;;;;;;;5080643;28;20819;-76
2021/06/24 08:50:50;;;;;;;5.07;3.93;;;;;;;;;;5083067;28;20807;-75
2021/06/24 08:53:21;;;;;;;7.83;4.97;;;;;;;;;;5074252;28;20474;-70
2021/06/24 08:55:51;;;;;;;4.83;4.13;;;;;;;;;;5070730;28;20752;-75
2021/06/24 08:58:17;;;;;;;5.53;5.00;;;;;;;;;;5082767;28;20437;-74
2021/06/24 09:00:43;;;;;;;5.63;4.57;;;;;;;;;;5080726;28;20406;-74
2021/06/24 09:03:15;;;;;;;6.37;4.30;;;;;;;;;;5071312;28;20866;-73
2021/06/24 09:06:08;;;;;;;6.07;4.73;;;;;;;;;;5081696;28;20771;-76
2021/06/24 09:08:35;;;;;;;4.30;3.90;;;;;;;;;;5070297;28;20450;-72
2021/06/24 09:11:08;;;;;;;3.90;3.50;;;;;;;;;;5073474;28;20410;-74
2021/06/24 09:13:34;;;;;;;4.13;3.73;;;;;;;;;;5086114;28;20475;-73
2021/06/24 09:16:07;;;;;;;4.97;4.57;;;;;;;;;;5082872;28;20414;-74
2021/06/24 09:18:33;;;;;;;4.23;3.83;;;;;;;;;;5079211;28;20492;-72
2021/06/24 09:21:03;;;;;;;4.13;3.03;;;;;;;;;;5081668;28;20978;-76
2021/06/24 09:23:29;;;;;;;4.90;4.30;;;;;;;;;;5079935;28;20510;-74
2021/06/24 09:26:12;;;;;;;4.17;3.80;;;;;;;;;;5076856;28;20452;-75
2021/06/24 09:28:39;;;;;;;3.77;3.30;;;;;;;;;;5086304;28;20418;-76
2021/06/24 09:31:19;;;;;;;4.27;3.97;;;;;;;;;;5083273;28;20837;-75
2021/06/24 09:33:45;;;;;;;4.73;4.20;;;;;;;;;;5072545;28;21279;-74
2021/06/24 09:36:11;;;;;;;4.20;3.60;;;;;;;;;;5072208;28;20423;-76
2021/06/24 09:38:42;;;;;;;4.03;3.63;;;;;;;;;;5084469;28;20413;-75
2021/06/24 09:41:15;;;;;;;4.33;3.93;;;;;;;;;;5078635;28;20529;-74
2021/06/24 09:43:42;;;;;;;5.50;5.00;;;;;;;;;;5074254;28;20968;-75
2021/06/24 09:46:14;;;;;;;4.63;4.23;;;;;;;;;;5073184;28;20827;-72
2021/06/24 09:48:41;;;;;;;4.77;4.37;;;;;;;;;;5085761;28;20417;-74
2021/06/24 09:51:08;;;;;;;4.70;4.20;;;;;;;;;;5077599;28;20760;-72
2021/06/24 09:53:46;;;;;;;5.60;4.93;;;;;;;;;;5073021;28;20475;-71
2021/06/24 09:56:23;;;;;;;5.73;4.40;;;;;;;;;;5072053;28;20804;-75
2021/06/24 09:58:50;;;;;;;4.60;3.83;;;;;;;;;;5071792;28;20414;-73
2021/06/24 10:01:27;;;;;;;5.37;4.73;;;;;;;;;;5072830;28;20418;-75
2021/06/24 10:03:54;;;;;;;4.60;4.20;;;;;;;;;;5071805;28;20414;-75
2021/06/24 10:06:20;;;;;;;4.83;4.40;;;;;;;;;;5071849;28;20461;-74
2021/06/24 10:08:46;;;;;;;5.63;4.70;;;;;;;;;;5072049;28;20789;-73
2021/06/24 10:11:12;;;;;;;4.27;3.87;;;;;;;;;;5071748;28;20417;-74
2021/06/24 10:13:38;;;;;;;4.77;4.20;;;;;;;;;;5075317;28;20430;-73
2021/06/24 10:16:05;;;;;;;5.43;4.93;;;;;;;;;;5086156;28;20414;-71
2021/06/24 10:18:33;;;;;;;5.50;5.00;;;;;;;;;;5075537;28;20417;-71
2021/06/24 10:20:59;;;;;;;4.47;4.07;;;;;;;;;;5090790;28;20414;-72
2021/06/24 10:23:25;;;;;;;5.10;4.70;;;;;;;;;;5091555;28;20463;-74
2021/06/24 10:25:52;;;;;;;5.83;5.30;;;;;;;;;;5081343;28;20418;-75
2021/06/24 10:28:18;;;;;;;5.50;5.00;;;;;;;;;;5083883;28;20418;-75
2021/06/24 10:30:45;;;;;;;5.27;4.87;;;;;;;;;;5071176;28;20418;-73
2021/06/24 10:33:15;;;;;;;5.90;5.30;;;;;;;;;;5070844;28;20434;-73
2021/06/24 10:35:43;;;;;;;6.00;5.40;;;;;;;;;;5071156;28;20900;-73
2021/06/24 10:38:10;;;;;;;6.00;5.07;;;;;;;;;;5070359;28;20442;-75
2021/06/24 10:40:38;;;;;;;4.80;4.40;;;;;;;;;;5070922;28;20436;-75
2021/06/24 10:43:06;;;;;;;5.80;5.27;;;;;;;;;;5070595;28;20862;-73
2021/06/24 10:45:33;;;;;;;7.57;5.33;;;;;;;;;;5070822;28;20418;-71
2021/06/24 10:47:59;;;;;;;5.70;5.20;;;;;;;;;;5070593;28;20472;-75
2021/06/24 10:50:38;;;;;;;4.90;4.50;;;;;;;;;;5070460;28;21261;-74
2021/06/24 10:53:07;;;;;;;5.03;4.63;;;;;;;;;;5070268;28;20431;-75
2021/06/24 10:55:34;;;;;;;5.10;4.60;;;;;;;;;;5069733;28;20543;-72
2021/06/24 10:58:01;;;;;;;5.30;4.80;;;;;;;;;;5070443;28;20421;-74
2021/06/24 11:00:43;;;;;;;5.00;4.60;;;;;;;;;;5068896;28;20534;-75
2021/06/24 11:03:10;;;;;;;5.50;5.00;;;;;;;;;;5070447;28;20434;-75
2021/06/24 11:05:37;;;;;;;4.53;4.10;;;;;;;;;;5070450;28;20939;-72
2021/06/24 11:08:12;;;;;;;5.07;4.67;;;;;;;;;;5070133;28;20478;-72
2021/06/24 11:10:58;;;;;;;5.87;4.60;;;;;;;;;;5070658;28;20418;-74
2021/06/24 11:13:50;;;;;;;4.63;4.23;;;;;;;;;;5098727;28;20436;-71
2021/06/24 11:16:17;;;;;;;7.17;6.67;;;;;;;;;;5080014;28;20421;-73
2021/06/24 11:18:59;;;;;;;4.60;4.17;;;;;;;;;;5071084;28;20482;-71
2021/06/24 11:21:31;;;;;;;4.23;3.93;;;;;;;;;;5083752;28;20515;-72
2021/06/24 11:24:00;;;;;;;6.50;4.57;;;;;;;;;;5079116;28;20416;-71
2021/06/24 11:26:26;;;;;;;4.00;3.70;;;;;;;;;;5072772;28;20922;-75
2021/06/24 11:28:55;;;;;;;4.50;4.10;;;;;;;;;;5085490;28;20505;-70
2021/06/24 11:31:44;;;;;;;4.27;3.97;;;;;;;;;;5069739;28;20683;-73
2021/06/24 11:36:50;;;;;;;3.80;3.40;;;;;;;;;;5074957;28;20425;-77
2021/06/24 11:39:36;;;;;;;3.80;3.50;;;;;;;;;;5074398;28;20502;-76
2021/06/24 11:42:13;;;;;;;5.63;4.47;;;;;;;;;;5069644;28;20431;-74
2021/06/24 11:44:45;;;;;;;4.00;3.70;;;;;;;;;;5069474;28;20445;-75
2021/06/24 11:47:12;;;;;;;4.83;4.43;;;;;;;;;;5069370;28;20557;-75
2021/06/24 12:03:39;;;;;;;4.33;3.93;;;;;;;;;;5068829;28;20529;-77
2021/06/24 12:06:05;;;;;;;4.90;4.40;;;;;;;;;;5068846;28;20414;-74
2021/06/24 12:08:31;;;;;;;3.73;3.43;;;;;;;;;;5068786;28;20495;-76
2021/06/24 12:11:13;;;;;;;4.40;4.00;;;;;;;;;;5069216;28;20415;-74
2021/06/24 12:13:41;;;;;;;4.50;4.10;;;;;;;;;;5069598;28;20430;-77
2021/06/24 12:16:07;;;;;;;4.57;4.20;;;;;;;;;;5089069;28;20397;-75
2021/06/24 12:18:34;;;;;;;4.60;4.30;;;;;;;;;;5088781;28;20405;-77
2021/06/24 12:21:01;;;;;;;3.87;3.57;;;;;;;;;;5089094;28;20433;-75
2021/06/24 12:23:27;;;;;;;4.27;3.87;;;;;;;;;;5089320;28;20430;-76
2021/06/24 12:25:53;;;;;;;4.27;3.97;;;;;;;;;;5073968;28;20404;-77
2021/06/24 12:28:25;;;;;;;4.77;4.37;;;;;;;;;;5086668;28;20444;-76
2021/06/24 12:30:51;;;;;;;5.00;4.60;;;;;;;;;;5078596;28;20566;-77
2021/06/24 12:33:18;;;;;;;7.10;4.90;;;;;;;;;;5069822;28;20438;-76
2021/06/24 12:35:48;;;;;;;3.90;3.60;;;;;;;;;;5068702;28;20410;-76
2021/06/24 12:38:17;;;;;;;5.00;4.60;;;;;;;;;;5068765;28;20422;-77
2021/06/24 12:40:49;;;;;;;4.87;3.90;;;;;;;;;;5068815;28;20417;-75
2021/06/24 12:43:19;;;;;;;5.23;3.80;;;;;;;;;;5076463;28;20479;-76
2021/06/24 12:45:47;;;;;;;4.00;3.60;;;;;;;;;;5073779;28;20438;-76
2021/06/24 12:48:28;;;;;;;4.57;4.17;;;;;;;;;;5068421;28;20470;-75
2021/06/24 12:50:55;;;;;;;3.97;3.60;;;;;;;;;;5068773;28;20419;-75
2021/06/24 12:53:29;;;;;;;4.27;3.90;;;;;;;;;;5068630;28;20517;-73
2021/06/24 12:55:55;;;;;;;4.53;4.13;;;;;;;;;;5074143;28;20429;-76
2021/06/24 12:58:23;;;;;;;4.20;3.90;;;;;;;;;;5076472;28;20414;-77
2021/06/24 13:00:51;;;;;;;3.97;3.60;;;;;;;;;;5068360;28;20501;-75
2021/06/24 13:03:18;;;;;;;4.07;3.77;;;;;;;;;;5068565;28;20521;-76
2021/06/24 13:05:44;;;;;;;4.43;4.13;;;;;;;;;;5068519;28;20415;-76
2021/06/24 13:08:10;;;;;;;4.13;3.73;;;;;;;;;;5068283;28;20478;-75
2021/06/24 13:10:49;;;;;;;5.13;4.00;;;;;;;;;;5068467;28;20410;-75
2021/06/24 13:13:28;;;;;;;4.30;3.90;;;;;;;;;;5068384;28;20442;-75
2021/06/24 13:15:54;;;;;;;4.90;4.50;;;;;;;;;;5087959;28;20410;-75
2021/06/24 13:18:20;;;;;;;3.80;3.50;;;;;;;;;;5093522;28;20459;-77
2021/06/24 13:21:00;;;;;;;4.33;3.53;;;;;;;;;;5093718;28;20477;-76
2021/06/24 13:23:33;;;;;;;6.23;3.53;;;;;;;;;;5072275;28;20442;-78
2021/06/24 13:26:13;;;;;;;3.70;3.40;;;;;;;;;;5076174;28;20905;-75
2021/06/24 13:28:40;;;;;;;4.00;2.90;;;;;;;;;;5073468;28;20432;-75
2021/06/24 13:31:07;;;;;;;8.30;7.50;;;;;;;;;;5073715;28;20406;-75
2021/06/24 13:33:43;;;;;;;4.50;4.10;;;;;;;;;;5072222;28;20442;-76
2021/06/24 13:36:22;;;;;;;3.90;3.23;;;;;;;;;;5080123;28;20413;-76
2021/06/24 13:38:56;;;;;;;5.23;2.80;;;;;;;;;;5072115;28;20414;-75
2021/06/24 13:41:27;;;;;;;3.43;3.13;;;;;;;;;;5082917;28;20422;-75
2021/06/24 13:44:03;;;;;;;4.43;3.90;;;;;;;;;;5072045;28;20429;-76
2021/06/24 13:46:29;;;;;;;4.40;4.10;;;;;;;;;;5078078;28;20481;-76
2021/06/24 13:48:55;;;;;;;5.10;4.30;;;;;;;;;;5071678;28;20419;-75
2021/06/24 13:51:21;;;;;;;4.50;4.20;;;;;;;;;;5071903;28;20414;-76
2021/06/24 13:53:47;;;;;;;4.03;3.70;;;;;;;;;;5071555;28;20442;-76
2021/06/24 13:56:14;;;;;;;4.50;4.10;;;;;;;;;;5071589;28;20414;-75
2021/06/24 13:58:40;;;;;;;4.13;3.47;;;;;;;;;;5071500;28;20411;-74
2021/06/24 14:01:06;;;;;;;4.70;4.30;;;;;;;;;;5071684;28;20497;-75
2021/06/24 14:03:34;;;;;;;5.13;4.20;;;;;;;;;;5071316;28;20437;-77
2021/06/24 14:06:00;;;;;;;4.93;3.90;;;;;;;;;;5071567;28;20418;-76
2021/06/24 14:08:26;;;;;;;4.43;4.03;;;;;;;;;;5070988;28;20441;-76
2021/06/24 14:10:52;;;;;;;5.70;5.20;;;;;;;;;;5071424;28;20411;-75
2021/06/24 14:13:18;;;;;;;5.60;5.10;;;;;;;;;;5071091;28;20881;-75
2021/06/24 14:15:44;;;;;;;5.10;4.70;;;;;;;;;;5089344;28;20898;-76
2021/06/24 14:18:11;;;;;;;6.60;4.47;;;;;;;;;;5091217;28;20447;-75
2021/06/24 14:20:37;;;;;;;4.77;4.47;;;;;;;;;;5091548;28;20567;-77
2021/06/24 14:23:04;;;;;;;8.20;4.80;;;;;;;;;;5090845;28;20441;-75
2021/06/24 14:25:30;;;;;;;5.57;5.07;;;;;;;;;;5083496;28;20419;-75
2021/06/24 14:27:56;;;;;;;5.00;4.63;;;;;;;;;;5084145;28;20457;-75
2021/06/24 14:30:22;;;;;;;7.10;5.77;;;;;;;;;;5072678;28;21048;-75
2021/06/24 14:32:48;;;;;;;6.87;4.97;;;;;;;;;;5070531;28;20453;-76
2021/06/24 14:35:14;;;;;;;6.70;6.07;;;;;;;;;;5070998;28;20422;-77
2021/06/24 14:37:40;;;;;;;5.47;4.97;;;;;;;;;;5070629;28;20426;-75
2021/06/24 14:40:06;;;;;;;6.03;4.30;;;;;;;;;;5071076;28;20476;-74
2021/06/24 14:42:32;;;;;;;5.90;5.40;;;;;;;;;;5070763;28;20446;-74
2021/06/24 14:44:58;;;;;;;5.50;5.07;;;;;;;;;;5070738;28;20422;-75
2021/06/24 14:47:25;;;;;;;5.10;4.70;;;;;;;;;;5070707;28;20454;-76
2021/06/24 14:49:51;;;;;;;4.90;4.47;;;;;;;;;;5080482;28;20425;-74
2021/06/24 14:52:17;;;;;;;5.57;5.00;;;;;;;;;;5070325;28;20430;-76
2021/06/24 14:54:43;;;;;;;5.80;5.30;;;;;;;;;;5070736;28;20522;-75
2021/06/24 14:57:09;;;;;;;5.80;4.30;;;;;;;;;;5070508;28;20422;-75
2021/06/24 14:59:35;;;;;;;5.57;4.20;;;;;;;;;;5070647;28;20982;-75
2021/06/24 15:02:01;;;;;;;5.93;4.87;;;;;;;;;;5070318;28;20430;-74